Humidity-temperature Sensor

Selected Measurement Type: Air Temperature

 
Air Temperature [°C]     6 entries per hour
Showing data from 8/18/2022 (01:00:00 Z) to 8/17/2022 (00:01:00 Z)
Previous Next [ Day | 3-Days | 7-Days ]
First Last
Prev [ Day | 3-Days | 7-Days ] Next
First Last

Start Time:     :
End Time:     :     
Time (in GMT) :00 :50 :40 :30 :20 :10
Previous Next [ Day | 3-Days | 7-Days ]
First Last
Prev [ Day | 3-Days | 7-Days ] Next
First Last


123 => good data
MM => data is determined as missing
-- => data not received/configured
Back to Top Back to Top
8/18/2022 01:00 to 0:10 25.64 25.62 25.72 25.96 25.86 25.58
8/18/2022 00:00 to 23:10 25.68 25.54 25.54 25.54 25.37 25.33
8/17/2022 23:00 to 22:10 25.37 25.63 25.56 25.84 25.68 25.66
8/17/2022 22:00 to 21:10 25.40 25.45 25.67 25.31 25.14 25.70
8/17/2022 21:00 to 20:10 25.91 25.83 26.10 25.70 25.76 25.91
8/17/2022 20:00 to 19:10 25.49 25.54 25.56 25.11 25.10 25.36
8/17/2022 19:00 to 18:10 25.41 26.18 25.99 25.68 25.69 25.92
8/17/2022 18:00 to 17:10 25.65 25.73 25.66 25.72 25.70 25.63
8/17/2022 17:00 to 16:10 -- -- -- -- -- --
8/17/2022 16:00 to 15:10 25.34 25.43 25.19 25.20 25.31 25.23
8/17/2022 15:00 to 14:10 25.20 25.36 25.40 25.28 25.47 25.34
8/17/2022 14:00 to 13:10 25.31 25.30 25.41 25.64 25.51 25.58
8/17/2022 13:00 to 12:10 25.74 25.55 25.33 25.49 25.44 25.53
8/17/2022 12:00 to 11:10 25.38 25.43 25.39 25.47 25.82 25.59
8/17/2022 11:00 to 10:10 25.56 25.62 25.70 25.57 25.63 25.61
8/17/2022 10:00 to 9:10 25.63 25.66 25.61 25.60 25.69 25.71
8/17/2022 09:00 to 8:10 25.74 25.53 25.79 25.80 25.99 25.77
8/17/2022 08:00 to 7:10 25.79 25.99 25.84 25.84 25.93 25.90
8/17/2022 07:00 to 6:10 25.94 25.72 25.92 25.87 25.89 25.89
8/17/2022 06:00 to 5:10 26.01 25.88 25.78 25.90 25.72 25.76
8/17/2022 05:00 to 4:10 25.70 25.87 25.68 25.76 25.79 25.64
8/17/2022 04:00 to 3:10 25.76 25.78 25.81 25.71 25.84 25.65
8/17/2022 03:00 to 2:10 25.72 25.80 25.92 25.90 25.75 25.80
8/17/2022 02:00 to 1:10 25.75 25.70 25.68 25.79 25.77 25.67
8/17/2022 01:00 to 0:10 25.79 25.69 25.66 25.64 25.63 25.82